createdAt,value
2017-10-07T00:00:30.122Z,3.90
2017-10-07T00:02:57.437Z,4.10
2017-10-07T00:05:24.760Z,3.53
2017-10-07T00:07:52.334Z,3.90
2017-10-07T00:10:19.673Z,4.10
2017-10-07T00:12:46.971Z,4.10
2017-10-07T00:15:14.433Z,3.83
2017-10-07T00:17:41.753Z,4.20
2017-10-07T00:20:09.070Z,3.70
2017-10-07T00:22:36.406Z,4.07
2017-10-07T00:25:03.691Z,4.13
2017-10-07T00:27:31.014Z,4.40
2017-10-07T00:29:58.320Z,5.40
2017-10-07T00:32:25.625Z,4.67
2017-10-07T00:34:52.978Z,4.27
2017-10-07T00:37:20.301Z,4.03
2017-10-07T00:39:47.753Z,4.10
2017-10-07T00:42:15.088Z,4.27
2017-10-07T00:44:42.405Z,3.70
2017-10-07T00:47:09.709Z,4.20
2017-10-07T00:49:37.029Z,4.57
2017-10-07T00:52:04.349Z,4.27
2017-10-07T00:54:31.702Z,3.90
2017-10-07T00:56:59.064Z,3.80
2017-10-07T00:59:26.381Z,4.30
2017-10-07T01:01:53.717Z,4.20
2017-10-07T01:04:21.040Z,3.97
2017-10-07T01:06:48.399Z,3.87
2017-10-07T01:09:15.690Z,4.63
2017-10-07T01:11:43.016Z,4.23
2017-10-07T01:14:10.313Z,4.23
2017-10-07T01:16:37.634Z,4.20
2017-10-07T01:19:04.920Z,4.30
2017-10-07T01:21:32.253Z,4.60
2017-10-07T01:23:59.550Z,3.87
2017-10-07T01:26:26.857Z,4.50
2017-10-07T01:28:54.175Z,3.80
2017-10-07T01:31:21.497Z,3.50
2017-10-07T01:33:48.813Z,3.53
2017-10-07T01:36:16.129Z,3.43
2017-10-07T01:38:43.429Z,3.73
2017-10-07T01:41:10.773Z,3.87
2017-10-07T01:43:38.105Z,3.70
2017-10-07T01:46:05.462Z,3.93
2017-10-07T01:48:32.761Z,3.70
2017-10-07T01:51:00.085Z,3.40
2017-10-07T01:53:27.378Z,4.60
2017-10-07T01:55:54.726Z,4.03
2017-10-07T01:58:22.034Z,3.73
2017-10-07T02:00:49.335Z,4.13
2017-10-07T02:03:16.655Z,5.10
2017-10-07T02:05:43.969Z,5.37
2017-10-07T02:08:11.285Z,4.60
2017-10-07T02:10:38.590Z,4.70
2017-10-07T02:13:05.900Z,4.80
2017-10-07T02:15:33.225Z,3.77
2017-10-07T02:18:00.549Z,5.67
2017-10-07T02:20:27.853Z,5.37
2017-10-07T02:22:55.177Z,4.47
2017-10-07T02:25:22.497Z,4.70
2017-10-07T02:27:49.845Z,5.30
2017-10-07T02:30:17.165Z,4.40
2017-10-07T02:32:44.467Z,5.40
2017-10-07T02:35:11.781Z,6.00
2017-10-07T02:37:39.084Z,5.10
2017-10-07T02:40:06.441Z,4.80
2017-10-07T02:42:33.777Z,5.00
2017-10-07T02:45:01.097Z,5.70
2017-10-07T02:47:29.381Z,5.80
2017-10-07T02:49:56.746Z,4.40
2017-10-07T02:52:24.045Z,5.00
2017-10-07T02:54:51.371Z,5.17
2017-10-07T02:57:18.667Z,4.97
2017-10-07T02:59:45.975Z,6.13
2017-10-07T03:02:13.278Z,5.37
2017-10-07T03:04:40.578Z,4.90
2017-10-07T03:07:07.934Z,4.83
2017-10-07T03:09:35.253Z,4.60
2017-10-07T03:12:02.621Z,4.43
2017-10-07T03:14:29.938Z,5.40
2017-10-07T03:16:57.290Z,4.97
2017-10-07T03:19:24.622Z,4.37
2017-10-07T03:21:51.956Z,4.90
2017-10-07T03:24:19.300Z,4.63
2017-10-07T03:26:46.605Z,4.63
2017-10-07T03:29:13.917Z,4.00
2017-10-07T03:31:41.237Z,5.00
2017-10-07T03:34:08.556Z,4.07
2017-10-07T03:36:35.875Z,4.27
2017-10-07T03:39:03.177Z,3.60
2017-10-07T03:41:30.509Z,4.40
2017-10-07T03:43:57.814Z,4.00
2017-10-07T03:46:25.117Z,4.50
2017-10-07T03:48:52.615Z,4.37
2017-10-07T03:51:19.949Z,4.70
2017-10-07T03:53:47.269Z,4.43
2017-10-07T03:56:14.559Z,4.80
2017-10-07T03:58:41.894Z,4.73
2017-10-07T04:01:09.206Z,4.63
2017-10-07T04:03:36.523Z,4.80
2017-10-07T04:06:03.811Z,4.80
2017-10-07T04:08:31.158Z,4.40
2017-10-07T04:10:58.466Z,4.73
2017-10-07T04:13:25.792Z,4.10
2017-10-07T04:15:53.107Z,4.20
2017-10-07T04:18:20.422Z,5.07
2017-10-07T04:20:47.927Z,4.23
2017-10-07T04:23:15.258Z,4.30
2017-10-07T04:25:42.565Z,3.90
2017-10-07T04:28:09.876Z,3.73
2017-10-07T04:30:37.212Z,3.77
2017-10-07T04:33:04.543Z,3.43
2017-10-07T04:35:31.848Z,3.30
2017-10-07T04:37:59.140Z,3.53
2017-10-07T04:40:26.482Z,4.13
2017-10-07T04:42:53.788Z,2.90
2017-10-07T04:45:21.116Z,3.33
2017-10-07T04:47:48.416Z,2.90
2017-10-07T04:50:15.742Z,3.20
2017-10-07T04:52:43.097Z,2.70
2017-10-07T04:55:10.420Z,3.00
2017-10-07T04:57:37.735Z,3.07
2017-10-07T05:00:05.029Z,3.00
2017-10-07T05:02:32.345Z,3.10
2017-10-07T05:04:59.661Z,3.40
2017-10-07T05:07:26.982Z,4.50
2017-10-07T05:09:54.271Z,4.10
2017-10-07T05:12:21.602Z,4.10
2017-10-07T05:14:48.921Z,4.10
2017-10-07T05:17:16.292Z,3.97
2017-10-07T05:19:43.616Z,3.87
2017-10-07T05:22:10.969Z,4.87
2017-10-07T05:24:38.287Z,4.90
2017-10-07T05:27:05.613Z,4.67
2017-10-07T05:29:32.922Z,4.90
2017-10-07T05:32:00.252Z,5.43
2017-10-07T05:34:27.601Z,5.20
2017-10-07T05:36:54.891Z,5.10
2017-10-07T05:39:22.210Z,5.40
2017-10-07T05:41:49.513Z,4.63
2017-10-07T05:44:16.937Z,5.70
2017-10-07T05:46:44.260Z,5.10
2017-10-07T05:49:11.579Z,6.03
2017-10-07T05:51:39.697Z,5.60
2017-10-07T05:54:07.350Z,5.00
2017-10-07T05:56:34.636Z,5.40
2017-10-07T05:59:01.953Z,5.07
2017-10-07T06:01:29.423Z,6.90
2017-10-07T06:03:56.763Z,5.47
2017-10-07T06:06:24.068Z,6.00
2017-10-07T06:08:51.371Z,4.90
2017-10-07T06:11:18.709Z,4.70
2017-10-07T06:13:46.038Z,4.67
2017-10-07T06:16:13.347Z,5.20
2017-10-07T06:18:40.649Z,5.20
2017-10-07T06:21:07.981Z,4.73
2017-10-07T06:23:35.308Z,4.23
2017-10-07T06:26:02.657Z,4.30
2017-10-07T06:28:30.001Z,3.33
2017-10-07T06:30:57.672Z,3.73
2017-10-07T06:33:24.960Z,3.73
2017-10-07T06:35:52.259Z,3.40
2017-10-07T06:38:19.553Z,3.50
2017-10-07T06:40:46.871Z,3.77
2017-10-07T06:43:14.256Z,3.57
2017-10-07T06:45:41.575Z,4.30
2017-10-07T06:48:08.897Z,4.27
2017-10-07T06:50:36.197Z,3.90
2017-10-07T06:53:03.508Z,4.60
2017-10-07T06:55:31.168Z,4.30
2017-10-07T06:57:58.537Z,3.60
2017-10-07T07:00:25.855Z,4.50
2017-10-07T07:02:53.207Z,5.20
2017-10-07T07:05:20.515Z,4.90
2017-10-07T07:07:48.279Z,4.80
2017-10-07T07:10:15.921Z,4.13
2017-10-07T07:12:43.266Z,4.50
2017-10-07T07:15:10.614Z,5.40
2017-10-07T07:17:37.968Z,4.93
2017-10-07T07:20:05.289Z,4.83
2017-10-07T07:22:32.587Z,4.30
2017-10-07T07:24:59.910Z,4.43
2017-10-07T07:27:27.227Z,4.50
2017-10-07T07:29:54.552Z,4.00
2017-10-07T07:32:21.881Z,4.83
2017-10-07T07:34:49.179Z,3.90
2017-10-07T07:37:16.485Z,4.90
2017-10-07T07:39:43.812Z,3.80
2017-10-07T07:42:11.142Z,4.30
2017-10-07T07:44:38.449Z,4.40
2017-10-07T07:47:05.745Z,4.40
2017-10-07T07:49:33.074Z,4.03
2017-10-07T07:52:00.356Z,4.07
2017-10-07T07:54:27.668Z,4.40
2017-10-07T07:56:54.981Z,4.00
2017-10-07T07:59:22.293Z,4.07
2017-10-07T08:01:49.660Z,3.83
2017-10-07T08:04:16.957Z,3.63
2017-10-07T08:06:44.547Z,3.20
2017-10-07T08:09:11.934Z,3.70
2017-10-07T08:11:39.284Z,3.50
2017-10-07T08:14:06.573Z,3.00
2017-10-07T08:16:33.881Z,2.97
2017-10-07T08:19:01.185Z,3.43
2017-10-07T08:21:28.512Z,3.27
2017-10-07T08:23:55.824Z,3.10
2017-10-07T08:26:23.137Z,3.10
2017-10-07T08:28:50.431Z,3.00
2017-10-07T08:31:17.816Z,3.33
2017-10-07T08:33:45.167Z,3.40
2017-10-07T08:36:12.737Z,3.40
2017-10-07T08:38:40.058Z,3.07
2017-10-07T08:41:07.339Z,3.50
2017-10-07T08:43:34.681Z,3.53
2017-10-07T08:46:01.999Z,3.50
2017-10-07T08:48:29.309Z,3.57
2017-10-07T08:50:56.603Z,3.47
2017-10-07T08:53:23.956Z,3.50
2017-10-07T08:55:51.268Z,3.73
2017-10-07T08:58:18.768Z,3.27
2017-10-07T09:00:46.045Z,3.40
2017-10-07T09:03:13.361Z,3.43
2017-10-07T09:05:40.648Z,3.67
2017-10-07T09:08:07.998Z,3.20
2017-10-07T09:10:35.328Z,3.07
2017-10-07T09:13:02.635Z,3.23
2017-10-07T09:15:30.037Z,4.23
2017-10-07T09:17:57.340Z,2.53
2017-10-07T09:20:24.665Z,3.00
2017-10-07T09:22:52.126Z,2.73
2017-10-07T09:25:19.437Z,3.07
2017-10-07T09:27:46.724Z,3.30
2017-10-07T09:30:14.070Z,2.77
2017-10-07T09:32:41.384Z,2.63
2017-10-07T09:35:08.683Z,2.90
2017-10-07T09:37:35.978Z,3.10
2017-10-07T09:40:03.324Z,2.87
2017-10-07T09:42:30.661Z,2.93
2017-10-07T09:44:58.034Z,2.43
2017-10-07T09:47:25.337Z,2.73
2017-10-07T09:55:44.449Z,2.63
2017-10-07T09:58:11.812Z,2.50
2017-10-07T10:00:39.158Z,2.37
2017-10-07T10:03:06.458Z,2.30
2017-10-07T10:05:33.785Z,2.30
2017-10-07T10:08:01.093Z,1.90
2017-10-07T10:10:28.392Z,2.40
2017-10-07T10:12:55.753Z,2.03
2017-10-07T10:15:23.058Z,2.37
2017-10-07T10:17:50.406Z,2.73
2017-10-07T10:20:17.740Z,2.37
2017-10-07T10:22:45.046Z,2.30
2017-10-07T10:25:12.372Z,2.90
2017-10-07T10:27:39.698Z,2.53
2017-10-07T10:30:07.005Z,2.50
2017-10-07T10:32:34.321Z,2.40
2017-10-07T10:35:01.637Z,2.60
2017-10-07T10:37:28.961Z,2.50
2017-10-07T10:39:56.282Z,2.50
2017-10-07T10:42:23.606Z,2.83
2017-10-07T10:44:50.921Z,2.40
2017-10-07T10:47:18.235Z,2.30
2017-10-07T10:49:45.553Z,2.33
2017-10-07T10:52:12.860Z,3.53
2017-10-07T10:54:40.188Z,3.80
2017-10-07T10:57:07.502Z,2.80
2017-10-07T10:59:34.844Z,3.57
2017-10-07T11:02:02.180Z,2.80
2017-10-07T11:04:29.507Z,2.43
2017-10-07T11:06:56.841Z,3.00
2017-10-07T11:09:24.161Z,2.47
2017-10-07T11:11:51.473Z,3.07
2017-10-07T11:14:18.797Z,2.90
2017-10-07T11:16:46.109Z,2.57
2017-10-07T11:19:13.430Z,3.07
2017-10-07T11:21:46.648Z,3.00
2017-10-07T11:24:14.177Z,3.20
2017-10-07T11:26:41.476Z,3.37
2017-10-07T11:29:08.794Z,3.27
2017-10-07T11:31:36.172Z,3.37
2017-10-07T11:34:03.486Z,3.10
2017-10-07T11:36:30.816Z,3.00
2017-10-07T11:38:58.116Z,3.30
2017-10-07T11:41:25.657Z,2.90
2017-10-07T11:43:52.960Z,3.40
2017-10-07T11:46:20.297Z,3.10
2017-10-07T11:48:47.609Z,3.63
2017-10-07T11:51:14.928Z,3.70
2017-10-07T11:53:42.233Z,3.67
2017-10-07T11:56:09.569Z,3.50
2017-10-07T11:58:36.872Z,3.00
2017-10-07T12:01:04.200Z,3.50
2017-10-07T12:03:31.503Z,3.97
2017-10-07T12:05:58.823Z,3.27
2017-10-07T12:08:26.137Z,2.97
2017-10-07T12:10:53.463Z,3.57
2017-10-07T12:13:20.817Z,4.07
2017-10-07T12:15:49.038Z,3.93
2017-10-07T12:18:16.356Z,3.47
2017-10-07T12:20:43.665Z,4.30
2017-10-07T12:23:10.993Z,3.70
2017-10-07T12:25:38.296Z,4.10
2017-10-07T12:28:05.621Z,4.20
2017-10-07T12:30:32.928Z,4.07
2017-10-07T12:33:00.250Z,4.20
2017-10-07T12:35:27.556Z,4.10
2017-10-07T12:37:54.882Z,4.60
2017-10-07T12:40:22.204Z,5.10
2017-10-07T12:42:49.508Z,4.60
2017-10-07T12:45:16.861Z,4.93
2017-10-07T12:47:44.168Z,5.17
2017-10-07T12:50:11.554Z,4.87
2017-10-07T12:52:38.849Z,4.70
2017-10-07T12:55:06.182Z,4.67
2017-10-07T12:57:33.504Z,5.10
2017-10-07T13:00:00.828Z,5.80
2017-10-07T13:02:28.137Z,4.50
2017-10-07T13:04:55.628Z,5.00
2017-10-07T13:07:22.929Z,5.60
2017-10-07T13:09:50.248Z,4.33
2017-10-07T13:12:17.556Z,5.57
2017-10-07T13:14:44.881Z,5.13
2017-10-07T13:17:12.187Z,4.40
2017-10-07T13:19:39.519Z,3.70
2017-10-07T13:22:06.820Z,5.00
2017-10-07T13:24:34.210Z,4.50
2017-10-07T13:27:01.509Z,4.50
2017-10-07T13:29:28.893Z,4.67
2017-10-07T13:31:56.249Z,4.60
2017-10-07T13:34:23.553Z,4.50
2017-10-07T13:36:50.896Z,4.70
2017-10-07T13:39:18.261Z,4.97
2017-10-07T13:41:45.584Z,4.80
2017-10-07T13:44:13.088Z,5.60
2017-10-07T13:46:40.408Z,5.67
2017-10-07T13:49:07.742Z,5.60
2017-10-07T13:51:35.050Z,5.70
2017-10-07T13:54:02.374Z,6.23
2017-10-07T13:56:29.704Z,5.93
2017-10-07T13:58:57.006Z,6.03
2017-10-07T14:01:24.343Z,6.13
2017-10-07T14:03:51.645Z,6.20
2017-10-07T14:06:19.002Z,6.30
2017-10-07T14:08:46.308Z,6.70
2017-10-07T14:11:13.649Z,6.70
2017-10-07T14:13:41.005Z,6.13
2017-10-07T14:16:08.310Z,6.50
2017-10-07T14:18:35.637Z,6.50
2017-10-07T14:21:02.940Z,6.57
2017-10-07T14:23:30.269Z,7.10
2017-10-07T14:25:57.581Z,7.07
2017-10-07T14:28:24.954Z,6.00
2017-10-07T14:30:52.265Z,6.70
2017-10-07T14:33:20.006Z,6.67
2017-10-07T14:35:47.314Z,5.87
2017-10-07T14:38:15.593Z,6.00
2017-10-07T14:40:42.898Z,7.70
2017-10-07T14:43:10.207Z,6.23
2017-10-07T14:45:37.553Z,7.20
2017-10-07T14:48:04.866Z,6.67
2017-10-07T14:50:32.197Z,6.57
2017-10-07T14:52:59.664Z,7.80
2017-10-07T14:55:26.984Z,7.07
2017-10-07T14:57:54.288Z,7.63
2017-10-07T15:00:21.623Z,7.60
2017-10-07T15:02:48.924Z,9.37
2017-10-07T15:05:16.248Z,8.20
2017-10-07T15:07:43.575Z,8.13
2017-10-07T15:10:10.990Z,7.90
2017-10-07T15:12:38.301Z,8.10
2017-10-07T15:15:05.614Z,8.33
2017-10-07T15:17:32.973Z,7.70
2017-10-07T15:20:00.313Z,7.20
2017-10-07T15:22:27.681Z,7.87
2017-10-07T15:24:54.976Z,6.20
2017-10-07T15:27:22.336Z,7.50
2017-10-07T15:29:49.676Z,7.10
2017-10-07T15:32:17.001Z,7.43
2017-10-07T15:34:44.311Z,7.20
2017-10-07T15:37:11.637Z,6.57
2017-10-07T15:39:38.964Z,7.90
2017-10-07T15:42:06.293Z,8.07
2017-10-07T15:44:33.616Z,7.40
2017-10-07T15:47:00.996Z,7.30
2017-10-07T15:49:28.328Z,7.30
2017-10-07T15:51:55.632Z,8.60
2017-10-07T15:54:22.980Z,7.53
2017-10-07T15:56:50.288Z,11.50
2017-10-07T15:59:17.620Z,8.30
2017-10-07T16:01:44.924Z,9.20
2017-10-07T16:04:12.257Z,6.80
2017-10-07T16:06:39.560Z,7.60
2017-10-07T16:09:06.884Z,7.67
2017-10-07T16:11:34.192Z,8.37
2017-10-07T16:14:01.525Z,8.30
2017-10-07T16:16:28.836Z,7.80
2017-10-07T16:18:56.240Z,6.77
2017-10-07T16:21:23.561Z,7.50
2017-10-07T16:23:50.912Z,7.87
2017-10-07T16:26:18.260Z,7.00
2017-10-07T16:28:45.625Z,7.23
2017-10-07T16:31:12.937Z,7.07
2017-10-07T16:33:40.560Z,6.93
2017-10-07T16:36:07.879Z,6.53
2017-10-07T16:38:35.206Z,6.33
2017-10-07T16:41:02.528Z,8.83
2017-10-07T16:43:29.852Z,9.37
2017-10-07T16:45:57.186Z,8.90
2017-10-07T16:48:24.498Z,9.10
2017-10-07T16:50:51.821Z,9.13
2017-10-07T16:53:19.414Z,8.70
2017-10-07T16:55:46.725Z,9.70
2017-10-07T16:58:14.072Z,9.70
2017-10-07T17:00:41.401Z,10.27
2017-10-07T17:03:08.721Z,7.40
2017-10-07T17:05:36.078Z,10.50
2017-10-07T17:08:03.410Z,10.17
2017-10-07T17:10:30.729Z,8.87
2017-10-07T17:12:58.094Z,10.80
2017-10-07T17:15:25.417Z,9.43
2017-10-07T17:17:52.742Z,9.30
2017-10-07T17:20:20.309Z,7.50
2017-10-07T17:22:47.653Z,8.47
2017-10-07T17:25:14.973Z,8.53
2017-10-07T17:27:42.308Z,8.20
2017-10-07T17:30:09.624Z,9.23
2017-10-07T17:32:36.957Z,6.73
2017-10-07T17:35:04.274Z,8.73
2017-10-07T17:37:31.606Z,10.00
2017-10-07T17:39:58.928Z,9.40
2017-10-07T17:42:26.252Z,8.20
2017-10-07T17:44:53.564Z,7.30
2017-10-07T17:47:20.873Z,8.20
2017-10-07T17:49:48.251Z,10.77
2017-10-07T17:52:15.590Z,10.10
2017-10-07T17:54:42.912Z,10.33
2017-10-07T17:57:10.230Z,7.97
2017-10-07T17:59:37.557Z,9.60
2017-10-07T18:02:05.188Z,6.30
2017-10-07T18:04:32.537Z,8.87
2017-10-07T18:06:59.840Z,7.73
2017-10-07T18:09:27.181Z,7.80
2017-10-07T18:11:54.494Z,7.90
2017-10-07T18:14:21.812Z,8.70
2017-10-07T18:16:49.129Z,8.20
2017-10-07T18:19:16.453Z,8.97
2017-10-07T18:21:43.764Z,7.77
2017-10-07T18:24:11.115Z,7.73
2017-10-07T18:26:38.438Z,9.03
2017-10-07T18:29:05.748Z,8.80
2017-10-07T18:31:34.037Z,8.30
2017-10-07T18:34:01.376Z,8.90
2017-10-07T18:36:28.764Z,7.93
2017-10-07T18:38:56.129Z,7.93
2017-10-07T18:41:23.477Z,8.07
2017-10-07T18:43:50.772Z,9.30
2017-10-07T18:46:18.133Z,8.23
2017-10-07T18:48:45.451Z,7.00
2017-10-07T18:51:12.781Z,7.87
2017-10-07T18:53:40.126Z,7.70
2017-10-07T18:56:07.448Z,8.13
2017-10-07T18:58:34.765Z,8.07
2017-10-07T19:01:02.253Z,7.87
2017-10-07T19:03:29.604Z,7.80
2017-10-07T19:05:56.937Z,7.40
2017-10-07T19:08:24.252Z,6.80
2017-10-07T19:10:51.713Z,8.10
2017-10-07T19:13:19.037Z,7.90
2017-10-07T19:15:46.388Z,7.33
2017-10-07T19:18:13.707Z,7.30
2017-10-07T19:20:41.031Z,7.07
2017-10-07T19:23:08.348Z,8.10
2017-10-07T19:25:35.656Z,7.40
2017-10-07T19:28:03.004Z,7.40
2017-10-07T19:30:30.312Z,6.20
2017-10-07T19:32:57.640Z,8.30
2017-10-07T19:35:24.964Z,7.87
2017-10-07T19:37:52.302Z,8.10
2017-10-07T19:40:19.637Z,7.67
2017-10-07T19:42:46.986Z,7.70
2017-10-07T19:45:14.299Z,7.23
2017-10-07T19:47:41.969Z,7.37
2017-10-07T19:50:09.318Z,7.00
2017-10-07T19:52:36.648Z,5.80
2017-10-07T19:55:03.961Z,5.97
2017-10-07T19:57:31.297Z,6.83
2017-10-07T19:59:58.605Z,7.53
2017-10-07T20:02:25.937Z,6.23
2017-10-07T20:04:53.261Z,6.67
2017-10-07T20:07:20.592Z,6.77
2017-10-07T20:09:47.918Z,6.07
2017-10-07T20:12:15.234Z,6.00
2017-10-07T20:14:42.569Z,5.30
2017-10-07T20:17:09.877Z,5.03
2017-10-07T20:19:37.560Z,6.07
2017-10-07T20:22:04.877Z,5.67
2017-10-07T20:24:32.213Z,6.40
2017-10-07T20:26:59.552Z,5.40
2017-10-07T20:29:27.340Z,6.60
2017-10-07T20:31:54.658Z,6.40
2017-10-07T20:34:21.969Z,5.60
2017-10-07T20:36:49.313Z,6.43
2017-10-07T20:39:16.630Z,5.23
2017-10-07T20:41:43.948Z,5.87
2017-10-07T20:44:11.253Z,6.27
2017-10-07T20:46:38.576Z,5.60
2017-10-07T20:49:05.892Z,5.90
2017-10-07T20:51:33.200Z,5.80
2017-10-07T20:54:00.510Z,5.23
2017-10-07T20:56:27.832Z,5.23
2017-10-07T20:58:55.137Z,5.40
2017-10-07T21:01:22.466Z,5.60
2017-10-07T21:03:49.804Z,6.37
2017-10-07T21:06:17.165Z,5.20
2017-10-07T21:08:44.453Z,5.83
2017-10-07T21:11:11.788Z,6.27
2017-10-07T21:13:40.020Z,6.23
2017-10-07T21:16:07.353Z,5.67
2017-10-07T21:18:34.677Z,6.00
2017-10-07T21:21:02.009Z,5.77
2017-10-07T21:23:29.358Z,5.90
2017-10-07T21:25:56.730Z,5.77
2017-10-07T21:28:24.118Z,6.80
2017-10-07T21:30:51.428Z,5.83
2017-10-07T21:33:18.752Z,5.23
2017-10-07T21:35:46.060Z,6.17
2017-10-07T21:38:13.384Z,5.60
2017-10-07T21:40:40.713Z,6.63
2017-10-07T21:43:08.045Z,5.80
2017-10-07T21:45:35.369Z,5.57
2017-10-07T21:48:02.672Z,6.00
2017-10-07T21:50:30.048Z,6.50
2017-10-07T21:52:57.365Z,6.30
2017-10-07T21:55:24.688Z,5.90
2017-10-07T21:57:51.993Z,5.30
2017-10-07T22:00:19.525Z,5.50
2017-10-07T22:02:46.882Z,5.10
2017-10-07T22:05:14.344Z,5.90
2017-10-07T22:07:42.513Z,4.93
2017-10-07T22:10:09.842Z,5.97
2017-10-07T22:12:37.166Z,6.07
2017-10-07T22:15:04.489Z,5.07
2017-10-07T22:17:31.805Z,5.63
2017-10-07T22:19:59.161Z,4.50
2017-10-07T22:22:26.452Z,6.00
2017-10-07T22:24:53.813Z,5.93
2017-10-07T22:27:21.126Z,5.67
2017-10-07T22:29:48.674Z,5.80
2017-10-07T22:32:16.013Z,5.70
2017-10-07T22:34:43.317Z,5.23
2017-10-07T22:37:10.658Z,5.57
2017-10-07T22:39:37.973Z,5.17
2017-10-07T22:42:05.306Z,5.93
2017-10-07T22:44:32.604Z,5.30
2017-10-07T22:46:59.924Z,6.20
2017-10-07T22:49:27.229Z,5.90
2017-10-07T22:51:54.620Z,5.50
2017-10-07T22:54:21.931Z,5.50
2017-10-07T22:56:49.268Z,5.20
2017-10-07T22:59:16.616Z,5.63
2017-10-07T23:01:43.963Z,5.57
2017-10-07T23:04:11.296Z,5.80
2017-10-07T23:06:38.627Z,5.53
2017-10-07T23:09:05.934Z,5.37
2017-10-07T23:11:33.320Z,5.60
2017-10-07T23:14:00.629Z,5.43
2017-10-07T23:16:27.977Z,5.60
2017-10-07T23:18:55.278Z,5.57
2017-10-07T23:21:22.596Z,5.60
2017-10-07T23:23:51.095Z,5.20
2017-10-07T23:26:18.416Z,4.47
2017-10-07T23:28:45.720Z,4.77
2017-10-07T23:31:13.025Z,5.47
2017-10-07T23:33:40.364Z,4.80
2017-10-07T23:36:07.682Z,4.50
2017-10-07T23:38:35.014Z,4.70
2017-10-07T23:41:02.361Z,4.60
2017-10-07T23:43:29.698Z,5.20
2017-10-07T23:45:57.008Z,5.10
2017-10-07T23:48:24.358Z,4.70
2017-10-07T23:50:51.670Z,5.10
2017-10-07T23:53:19.025Z,5.13
2017-10-07T23:55:46.936Z,4.80
2017-10-07T23:58:14.262Z,4.87
